createdAt,value
2018-10-11T00:00:27.756Z,27.20
2018-10-11T00:02:56.634Z,27.07
2018-10-11T00:05:25.411Z,32.83
2018-10-11T00:07:54.249Z,28.87
2018-10-11T00:10:23.053Z,29.07
2018-10-11T00:12:51.883Z,28.87
2018-10-11T00:15:20.682Z,31.30
2018-10-11T00:17:49.521Z,26.97
2018-10-11T00:20:18.333Z,30.97
2018-10-11T00:22:47.169Z,27.93
2018-10-11T00:25:15.905Z,28.23
2018-10-11T00:27:44.707Z,31.87
2018-10-11T00:30:13.506Z,30.43
2018-10-11T00:32:42.507Z,28.50
2018-10-11T00:35:11.304Z,32.97
2018-10-11T00:37:40.065Z,28.77
2018-10-11T00:40:09.757Z,34.20
2018-10-11T00:42:38.661Z,29.50
2018-10-11T00:45:07.583Z,30.17
2018-10-11T00:47:36.427Z,30.93
2018-10-11T00:50:05.241Z,31.77
2018-10-11T00:52:34.181Z,29.93
2018-10-11T00:55:03.007Z,28.93
2018-10-11T00:57:31.834Z,29.23
2018-10-11T01:00:00.623Z,29.17
2018-10-11T01:02:29.442Z,26.17
2018-10-11T01:04:58.296Z,30.23
2018-10-11T01:07:27.166Z,30.20
2018-10-11T01:09:55.967Z,32.90
2018-10-11T01:12:24.818Z,29.60
2018-10-11T01:14:53.624Z,29.53
2018-10-11T01:17:22.390Z,32.80
2018-10-11T01:19:51.169Z,32.37
2018-10-11T01:22:19.950Z,34.50
2018-10-11T01:24:48.723Z,32.33
2018-10-11T01:27:17.549Z,30.83
2018-10-11T01:29:46.396Z,28.17
2018-10-11T01:32:15.138Z,28.00
2018-10-11T01:34:43.949Z,31.90
2018-10-11T01:37:12.757Z,31.63
2018-10-11T01:39:41.722Z,31.07
2018-10-11T01:42:10.504Z,32.17
2018-10-11T01:44:39.395Z,31.17
2018-10-11T01:47:08.316Z,29.97
2018-10-11T01:49:37.088Z,34.33
2018-10-11T01:52:05.960Z,29.53
2018-10-11T01:54:34.769Z,33.20
2018-10-11T01:57:03.586Z,33.93
2018-10-11T01:59:32.424Z,34.80
2018-10-11T02:02:01.174Z,38.97
2018-10-11T02:04:29.954Z,37.60
2018-10-11T02:06:58.686Z,35.60
2018-10-11T02:09:27.545Z,37.60
2018-10-11T02:11:56.368Z,40.97
2018-10-11T02:14:25.118Z,38.73
2018-10-11T02:16:53.933Z,34.40
2018-10-11T02:19:22.704Z,38.60
2018-10-11T02:21:51.500Z,33.90
2018-10-11T02:24:20.275Z,37.87
2018-10-11T02:26:49.139Z,33.20
2018-10-11T02:29:17.894Z,35.87
2018-10-11T02:31:46.707Z,35.27
2018-10-11T02:34:15.516Z,35.53
2018-10-11T02:36:44.338Z,31.90
2018-10-11T02:39:13.145Z,35.47
2018-10-11T02:41:41.908Z,32.37
2018-10-11T02:44:10.715Z,36.47
2018-10-11T02:46:39.517Z,34.10
2018-10-11T02:49:08.343Z,29.93
2018-10-11T02:51:37.140Z,36.03
2018-10-11T02:54:06.139Z,31.10
2018-10-11T02:56:35.080Z,36.67
2018-10-11T02:59:17.868Z,36.67
2018-10-11T03:01:46.785Z,34.17
2018-10-11T03:04:15.675Z,35.37
2018-10-11T03:06:44.565Z,33.80
2018-10-11T03:09:13.514Z,40.87
2018-10-11T03:11:42.351Z,35.97
2018-10-11T03:14:11.192Z,31.73
2018-10-11T03:16:40.051Z,44.60
2018-10-11T03:19:08.854Z,37.73
2018-10-11T03:21:37.666Z,40.07
2018-10-11T03:24:06.584Z,38.50
2018-10-11T03:26:35.357Z,35.13
2018-10-11T03:29:04.150Z,38.27
2018-10-11T03:31:32.887Z,35.73
2018-10-11T03:34:01.739Z,43.10
2018-10-11T03:36:30.989Z,38.57
2018-10-11T03:38:59.805Z,42.27
2018-10-11T03:41:28.592Z,36.47
2018-10-11T03:43:57.397Z,37.73
2018-10-11T03:46:26.773Z,40.53
2018-10-11T03:48:55.562Z,40.03
2018-10-11T03:51:24.428Z,37.83
2018-10-11T03:53:53.174Z,40.20
2018-10-11T03:56:21.954Z,37.97
2018-10-11T03:58:50.818Z,37.63
2018-10-11T04:01:19.748Z,44.83
2018-10-11T04:03:48.665Z,37.40
2018-10-11T04:06:17.508Z,39.40
2018-10-11T04:08:46.317Z,36.00
2018-10-11T04:11:15.137Z,39.33
2018-10-11T04:13:44.211Z,41.40
2018-10-11T04:16:12.973Z,41.70
2018-10-11T04:18:41.794Z,48.10
2018-10-11T04:21:10.958Z,44.83
2018-10-11T04:23:39.929Z,55.63
2018-10-11T04:26:08.700Z,46.83
2018-10-11T04:28:37.447Z,46.03
2018-10-11T04:31:06.277Z,48.77
2018-10-11T04:33:35.121Z,50.57
2018-10-11T04:36:04.060Z,40.40
2018-10-11T04:38:32.852Z,42.30
2018-10-11T04:41:01.711Z,39.13
2018-10-11T04:43:30.537Z,40.37
2018-10-11T04:45:59.332Z,33.17
2018-10-11T04:48:28.177Z,43.10
2018-10-11T04:50:57.297Z,48.10
2018-10-11T04:53:26.062Z,44.53
2018-10-11T04:55:54.959Z,55.03
2018-10-11T04:58:24.096Z,53.93
2018-10-11T05:00:52.827Z,48.13
2018-10-11T05:03:21.653Z,43.37
2018-10-11T05:05:50.436Z,44.40
2018-10-11T05:08:19.170Z,45.23
2018-10-11T05:10:48.024Z,44.80
2018-10-11T05:13:17.236Z,42.37
2018-10-11T05:15:46.281Z,42.30
2018-10-11T05:18:17.966Z,43.80
2018-10-11T05:20:46.821Z,42.67
2018-10-11T05:23:15.673Z,40.07
2018-10-11T05:25:44.509Z,41.47
2018-10-11T05:28:13.367Z,45.33
2018-10-11T05:30:44.716Z,44.27
2018-10-11T05:33:14.472Z,44.47
2018-10-11T05:35:43.333Z,42.47
2018-10-11T05:38:12.156Z,40.03
2018-10-11T05:40:41.438Z,39.23
2018-10-11T05:43:10.858Z,41.83
2018-10-11T05:45:40.382Z,41.17
2018-10-11T05:48:09.265Z,40.93
2018-10-11T05:50:38.245Z,40.20
2018-10-11T05:53:07.268Z,44.07
2018-10-11T05:55:36.155Z,43.63
2018-10-11T05:58:05.086Z,41.17
2018-10-11T06:00:33.879Z,43.13
2018-10-11T06:03:03.822Z,49.20
2018-10-11T06:05:32.811Z,50.43
2018-10-11T06:08:02.580Z,44.10
2018-10-11T06:10:34.561Z,41.67
2018-10-11T06:13:04.874Z,34.93
2018-10-11T06:15:33.708Z,40.30
2018-10-11T06:18:02.579Z,40.77
2018-10-11T06:20:31.459Z,42.47
2018-10-11T06:23:00.358Z,42.97
2018-10-11T06:25:29.116Z,39.77
2018-10-11T06:27:58.048Z,45.07
2018-10-11T06:30:27.031Z,45.83
2018-10-11T06:32:55.921Z,46.23
2018-10-11T06:35:24.862Z,49.00
2018-10-11T06:37:54.154Z,45.73
2018-10-11T06:40:23.025Z,45.90
2018-10-11T06:42:52.292Z,42.43
2018-10-11T06:45:21.232Z,46.37
2018-10-11T06:47:51.985Z,42.87
2018-10-11T06:50:20.922Z,51.93
2018-10-11T06:52:49.819Z,48.47
2018-10-11T06:55:18.587Z,48.73
2018-10-11T06:57:47.398Z,45.13
2018-10-11T07:00:16.207Z,51.10
2018-10-11T07:02:44.987Z,50.17
2018-10-11T07:05:13.747Z,50.50
2018-10-11T07:07:42.538Z,46.60
2018-10-11T07:10:11.334Z,38.53
2018-10-11T07:12:40.232Z,44.43
2018-10-11T07:15:09.035Z,44.20
2018-10-11T07:17:37.805Z,40.80
2018-10-11T07:20:06.661Z,45.27
2018-10-11T07:22:35.622Z,36.57
2018-10-11T07:25:04.467Z,35.70
2018-10-11T07:27:33.290Z,40.47
2018-10-11T07:30:02.082Z,39.57
2018-10-11T07:32:30.836Z,34.57
2018-10-11T07:34:59.676Z,34.97
2018-10-11T07:37:28.474Z,35.93
2018-10-11T07:39:57.213Z,36.83
2018-10-11T07:42:26.014Z,36.17
2018-10-11T07:44:54.808Z,32.97
2018-10-11T07:47:23.662Z,35.77
2018-10-11T07:49:52.460Z,29.43
2018-10-11T07:52:21.253Z,30.07
2018-10-11T07:54:50.007Z,33.30
2018-10-11T07:57:18.784Z,25.97
2018-10-11T07:59:47.641Z,27.63
2018-10-11T08:02:16.397Z,25.27
2018-10-11T08:04:45.223Z,21.93
2018-10-11T08:07:14.080Z,19.07
2018-10-11T08:09:42.836Z,18.20
2018-10-11T08:12:11.642Z,17.43
2018-10-11T08:14:40.447Z,18.13
2018-10-11T08:17:09.569Z,17.13
2018-10-11T08:19:38.033Z,15.60
2018-10-11T08:22:06.918Z,16.97
2018-10-11T08:24:35.754Z,15.57
2018-10-11T08:27:04.603Z,15.70
2018-10-11T08:29:33.409Z,16.33
2018-10-11T08:32:02.308Z,16.67
2018-10-11T08:34:31.039Z,15.10
2018-10-11T08:36:59.814Z,15.23
2018-10-11T08:39:28.644Z,17.50
2018-10-11T08:41:57.417Z,15.13
2018-10-11T08:44:26.200Z,15.03
2018-10-11T08:46:55.019Z,16.70
2018-10-11T08:49:23.793Z,14.60
2018-10-11T08:51:52.583Z,15.17
2018-10-11T08:54:26.445Z,14.87
2018-10-11T08:56:55.294Z,15.30
2018-10-11T08:59:24.084Z,17.07
2018-10-11T09:01:52.873Z,15.57
2018-10-11T09:04:21.661Z,15.40
2018-10-11T09:06:50.447Z,15.53
2018-10-11T09:09:19.219Z,14.63
2018-10-11T09:11:47.977Z,14.57
2018-10-11T09:14:16.825Z,15.73
2018-10-11T09:16:45.597Z,14.37
2018-10-11T09:19:14.430Z,14.47
2018-10-11T09:21:43.211Z,14.13
2018-10-11T09:24:12.006Z,14.17
2018-10-11T09:26:40.811Z,18.77
2018-10-11T09:29:09.650Z,14.80
2018-10-11T09:31:38.406Z,13.70
2018-10-11T09:34:07.279Z,14.73
2018-10-11T09:36:36.200Z,14.33
2018-10-11T09:39:07.189Z,13.70
2018-10-11T09:41:36.068Z,14.87
2018-10-11T09:44:04.926Z,13.10
2018-10-11T09:46:33.729Z,14.60
2018-10-11T09:49:02.545Z,13.93
2018-10-11T09:51:31.331Z,16.00
2018-10-11T09:54:00.069Z,14.50
2018-10-11T09:57:35.543Z,14.73
2018-10-11T10:00:09.285Z,13.87
2018-10-11T10:02:38.159Z,13.37
2018-10-11T10:05:06.919Z,13.33
2018-10-11T10:07:35.688Z,13.53
2018-10-11T10:10:04.858Z,12.83
2018-10-11T10:12:33.721Z,13.90
2018-10-11T10:15:02.685Z,13.67
2018-10-11T10:17:31.434Z,13.40
2018-10-11T10:20:00.246Z,14.20
2018-10-11T10:22:29.061Z,13.10
2018-10-11T10:24:57.990Z,13.30
2018-10-11T10:27:26.848Z,13.30
2018-10-11T10:29:55.657Z,13.20
2018-10-11T10:32:24.438Z,12.40
2018-10-11T10:34:53.198Z,14.17
2018-10-11T10:37:22.067Z,13.27
2018-10-11T10:39:50.944Z,12.77
2018-10-11T10:42:19.662Z,13.30
2018-10-11T10:44:48.454Z,12.67
2018-10-11T10:47:17.270Z,12.13
2018-10-11T10:49:46.056Z,12.50
2018-10-11T10:52:14.790Z,12.07
2018-10-11T10:54:43.518Z,13.23
2018-10-11T10:57:12.302Z,12.77
2018-10-11T10:59:41.059Z,12.67
2018-10-11T11:02:09.915Z,13.47
2018-10-11T11:04:38.677Z,14.40
2018-10-11T11:07:07.501Z,21.33
2018-10-11T11:09:36.269Z,12.00
2018-10-11T11:12:05.075Z,14.47
2018-10-11T11:14:33.889Z,12.50
2018-10-11T11:17:02.671Z,11.57
2018-10-11T11:19:31.445Z,12.87
2018-10-11T11:22:00.224Z,12.40
2018-10-11T11:24:28.942Z,12.30
2018-10-11T11:26:57.745Z,11.97
2018-10-11T11:29:26.527Z,12.47
2018-10-11T11:31:55.285Z,11.80
2018-10-11T11:34:24.069Z,12.10
2018-10-11T11:36:52.828Z,11.57
2018-10-11T11:39:21.622Z,13.23
2018-10-11T11:41:50.421Z,13.07
2018-10-11T11:44:19.211Z,12.30
2018-10-11T11:46:48.021Z,15.57
2018-10-11T11:49:16.867Z,11.40
2018-10-11T11:51:45.677Z,19.60
2018-10-11T11:54:18.769Z,14.23
2018-10-11T11:56:47.701Z,11.80
2018-10-11T11:59:16.503Z,12.93
2018-10-11T12:01:45.320Z,11.97
2018-10-11T12:04:14.094Z,13.53
2018-10-11T12:06:42.946Z,10.70
2018-10-11T12:09:13.152Z,10.73
2018-10-11T12:11:42.116Z,11.03
2018-10-11T12:14:10.875Z,11.93
2018-10-11T12:16:39.879Z,11.20
2018-10-11T12:19:10.159Z,12.23
2018-10-11T12:21:39.067Z,11.10
2018-10-11T12:24:07.862Z,10.07
2018-10-11T12:26:36.687Z,10.20
2018-10-11T12:29:05.524Z,11.67
2018-10-11T12:31:34.287Z,13.00
2018-10-11T12:34:03.083Z,11.20
2018-10-11T12:36:32.040Z,10.77
2018-10-11T12:39:00.852Z,10.27
2018-10-11T12:41:29.607Z,11.10
2018-10-11T12:43:58.405Z,11.47
2018-10-11T12:46:27.218Z,11.87
2018-10-11T12:48:55.961Z,11.77
2018-10-11T12:51:24.729Z,11.37
2018-10-11T12:53:53.495Z,11.10
2018-10-11T12:56:22.315Z,12.20
2018-10-11T12:58:51.065Z,13.37
2018-10-11T13:01:22.089Z,10.60
2018-10-11T13:03:48.743Z,15.20
2018-10-11T13:06:17.550Z,12.93
2018-10-11T13:08:46.296Z,11.63
2018-10-11T13:11:15.095Z,11.77
2018-10-11T13:13:47.861Z,10.67
2018-10-11T13:16:12.637Z,10.37
2018-10-11T13:18:41.416Z,10.77
2018-10-11T13:21:10.270Z,10.70
2018-10-11T13:23:39.042Z,11.57
2018-10-11T13:26:07.834Z,10.77
2018-10-11T13:28:36.721Z,11.97
2018-10-11T13:31:05.469Z,11.77
2018-10-11T13:33:34.248Z,11.27
2018-10-11T13:36:03.007Z,10.00
2018-10-11T13:38:31.753Z,10.20
2018-10-11T13:41:03.081Z,10.27
2018-10-11T13:43:29.338Z,10.47
2018-10-11T13:46:01.201Z,10.10
2018-10-11T13:48:26.943Z,9.43
2018-10-11T13:50:55.744Z,11.40
2018-10-11T13:53:24.798Z,9.53
2018-10-11T13:55:56.670Z,12.77
2018-10-11T13:58:22.179Z,10.60
2018-10-11T14:00:50.952Z,10.90
2018-10-11T14:03:19.740Z,9.63
2018-10-11T14:05:48.518Z,9.67
2018-10-11T14:08:17.281Z,12.23
2018-10-11T14:10:47.227Z,8.93
2018-10-11T14:13:18.826Z,8.45
2018-10-11T14:15:44.805Z,9.73
2018-10-11T14:18:14.123Z,9.35
2018-10-11T14:20:42.923Z,10.20
2018-10-11T14:23:11.791Z,11.05
2018-10-11T14:25:40.562Z,8.90
2018-10-11T14:28:09.342Z,9.75
2018-10-11T14:30:38.234Z,9.45
2018-10-11T14:33:07.045Z,9.53
2018-10-11T14:35:35.859Z,8.35
2018-10-11T14:38:04.691Z,9.58
2018-10-11T14:40:33.549Z,8.95
2018-10-11T14:43:02.815Z,11.05
2018-10-11T14:45:31.900Z,9.88
2018-10-11T14:48:00.669Z,9.53
2018-10-11T14:50:29.751Z,10.13
2018-10-11T14:52:58.693Z,9.13
2018-10-11T14:55:27.618Z,8.95
2018-10-11T14:57:56.482Z,9.03
2018-10-11T15:00:25.259Z,9.03
2018-10-11T15:02:54.144Z,9.43
2018-10-11T15:05:23.477Z,9.28
2018-10-11T15:07:52.228Z,8.80
2018-10-11T15:10:21.191Z,8.68
2018-10-11T15:12:50.271Z,9.63
2018-10-11T15:15:20.003Z,11.60
2018-10-11T15:17:48.864Z,8.95
2018-10-11T15:20:17.647Z,8.50
2018-10-11T15:22:46.511Z,8.73
2018-10-11T15:25:15.238Z,9.13
2018-10-11T15:27:44.081Z,8.73
2018-10-11T15:30:12.858Z,8.20
2018-10-11T15:32:41.638Z,8.65
2018-10-11T15:35:10.472Z,9.85
2018-10-11T15:37:39.301Z,8.83
2018-10-11T15:40:08.184Z,8.83
2018-10-11T15:42:36.979Z,8.45
2018-10-11T15:45:06.967Z,10.48
2018-10-11T15:47:35.809Z,9.10
2018-10-11T15:50:04.647Z,8.70
2018-10-11T15:52:33.538Z,8.93
2018-10-11T15:55:02.332Z,8.98
2018-10-11T15:57:31.115Z,8.13
2018-10-11T15:59:59.929Z,8.83
2018-10-11T16:02:28.721Z,9.23
2018-10-11T16:04:57.541Z,10.03
2018-10-11T16:07:26.352Z,12.10
2018-10-11T16:09:55.186Z,11.37
2018-10-11T16:12:23.919Z,9.80
2018-10-11T16:14:52.673Z,10.63
2018-10-11T16:17:21.449Z,10.70
2018-10-11T16:19:50.353Z,8.87
2018-10-11T16:22:19.490Z,14.87
2018-10-11T16:24:50.644Z,9.80
2018-10-11T16:27:19.506Z,10.90
2018-10-11T16:29:48.449Z,11.00
2018-10-11T16:32:17.348Z,11.30
2018-10-11T16:34:46.074Z,10.67
2018-10-11T16:37:14.892Z,10.97
2018-10-11T16:39:43.708Z,13.07
2018-10-11T16:42:12.476Z,10.77
2018-10-11T16:44:41.248Z,14.07
2018-10-11T16:47:10.098Z,10.27
2018-10-11T16:49:38.982Z,13.17
2018-10-11T16:52:07.695Z,9.67
2018-10-11T16:54:39.937Z,15.50
2018-10-11T16:57:08.762Z,12.27
2018-10-11T16:59:37.598Z,11.23
2018-10-11T17:02:06.517Z,13.67
2018-10-11T17:04:35.385Z,13.50
2018-10-11T17:07:04.162Z,13.70
2018-10-11T17:09:32.932Z,12.23
2018-10-11T17:12:01.773Z,13.20
2018-10-11T17:14:30.649Z,14.80
2018-10-11T17:16:59.457Z,12.37
2018-10-11T17:19:28.409Z,12.47
2018-10-11T17:21:58.112Z,13.43
2018-10-11T17:24:27.370Z,16.03
2018-10-11T17:26:56.336Z,14.63
2018-10-11T17:29:25.289Z,13.50
2018-10-11T17:31:54.217Z,13.90
2018-10-11T17:34:23.004Z,14.63
2018-10-11T17:36:51.826Z,13.63
2018-10-11T17:39:20.700Z,14.30
2018-10-11T17:41:49.530Z,14.63
2018-10-11T17:44:19.459Z,16.17
2018-10-11T17:46:48.289Z,13.90
2018-10-11T17:49:17.150Z,13.43
2018-10-11T17:51:46.020Z,13.73
2018-10-11T17:54:15.037Z,15.17
2018-10-11T17:56:43.960Z,18.20
2018-10-11T17:59:12.703Z,14.10
2018-10-11T18:04:19.690Z,15.00
2018-10-11T18:06:48.788Z,16.57
2018-10-11T18:09:18.059Z,16.60
2018-10-11T18:11:50.492Z,14.17
2018-10-11T18:14:19.546Z,12.87
2018-10-11T18:16:50.733Z,15.33
2018-10-11T18:24:41.643Z,18.50
2018-10-11T18:27:10.707Z,17.55
2018-10-11T18:29:39.795Z,14.97
2018-10-11T18:32:08.852Z,18.90
2018-10-11T18:34:38.086Z,15.25
2018-10-11T18:39:35.836Z,14.85
2018-10-11T19:31:45.804Z,16.90
2018-10-11T19:34:15.871Z,18.37
2018-10-11T19:36:45.391Z,17.70
2018-10-11T19:39:20.525Z,18.80
2018-10-11T19:41:49.419Z,18.93
2018-10-11T19:44:18.579Z,15.63
2018-10-11T19:46:47.542Z,16.37
2018-10-11T19:49:16.804Z,16.90
2018-10-11T19:51:46.180Z,16.73
2018-10-11T19:54:16.497Z,17.07
2018-10-11T19:56:45.427Z,16.53
2018-10-11T19:59:14.437Z,19.30
2018-10-11T20:01:43.411Z,17.73
2018-10-11T20:04:12.461Z,17.33
2018-10-11T20:06:41.327Z,17.03
2018-10-11T20:09:10.497Z,17.37
2018-10-11T20:11:39.376Z,20.40
2018-10-11T20:14:09.345Z,17.63
2018-10-11T20:16:38.248Z,17.27
2018-10-11T20:19:08.359Z,18.67
2018-10-11T20:21:37.236Z,19.43
2018-10-11T20:24:14.132Z,18.33
2018-10-11T20:26:43.019Z,16.23
2018-10-11T20:29:12.064Z,17.13
2018-10-11T20:31:40.923Z,17.57
2018-10-11T20:34:10.897Z,21.10
2018-10-11T20:36:39.765Z,18.37
2018-10-11T20:39:16.912Z,19.20
2018-10-11T20:41:45.803Z,17.40
2018-10-11T20:44:15.827Z,18.20
2018-10-11T20:46:44.738Z,17.30
2018-10-11T20:49:14.773Z,17.37
2018-10-11T20:51:43.621Z,19.50
2018-10-11T20:54:13.735Z,17.23
2018-10-11T20:56:42.727Z,18.87
2018-10-11T20:59:25.150Z,18.63
2018-10-11T21:01:55.647Z,18.13
2018-10-11T21:04:24.689Z,18.40
2018-10-11T21:06:53.570Z,17.20
2018-10-11T21:09:29.430Z,17.97
2018-10-11T21:11:58.341Z,18.53
2018-10-11T21:14:27.464Z,18.50
2018-10-11T21:16:56.353Z,18.20
2018-10-11T21:19:44.362Z,22.63
2018-10-11T21:22:13.329Z,17.83
2018-10-11T21:24:48.090Z,18.47
2018-10-11T21:27:16.915Z,17.63
2018-10-11T21:29:45.889Z,18.77
2018-10-11T21:32:14.771Z,17.93
2018-10-11T21:34:45.072Z,15.43
2018-10-11T21:37:13.971Z,14.90
2018-10-11T21:39:43.046Z,14.10
2018-10-11T21:42:11.941Z,12.53
2018-10-11T21:44:40.979Z,16.07
2018-10-11T21:47:09.866Z,14.77
2018-10-11T21:49:38.930Z,12.80
2018-10-11T21:52:08.032Z,14.33
2018-10-11T21:54:37.084Z,12.80
2018-10-11T21:57:06.029Z,11.77
2018-10-11T21:59:35.087Z,13.60
2018-10-11T22:02:04.015Z,15.17
2018-10-11T22:04:33.076Z,14.67
2018-10-11T22:07:02.014Z,11.83
2018-10-11T22:09:32.038Z,12.77
2018-10-11T22:12:00.986Z,15.43
2018-10-11T22:14:36.896Z,13.93
2018-10-11T22:17:05.752Z,15.40
2018-10-11T22:19:35.115Z,15.33
2018-10-11T22:22:04.109Z,16.80
2018-10-11T22:24:38.448Z,15.67
2018-10-11T22:27:07.822Z,16.20
2018-10-11T22:29:40.595Z,17.97
2018-10-11T22:32:09.614Z,17.03
2018-10-11T22:34:39.593Z,19.60
2018-10-11T22:37:08.800Z,16.50
2018-10-11T22:39:37.770Z,16.10
2018-10-11T22:42:06.758Z,16.20
2018-10-11T22:44:35.820Z,16.53
2018-10-11T22:47:04.697Z,14.17
2018-10-11T22:49:43.904Z,15.03
2018-10-11T22:52:12.759Z,16.10
2018-10-11T22:54:48.277Z,16.20
2018-10-11T22:57:17.126Z,16.90
2018-10-11T22:59:47.215Z,16.53
2018-10-11T23:02:16.165Z,16.60
2018-10-11T23:04:51.530Z,17.33
2018-10-11T23:07:20.458Z,16.77
2018-10-11T23:09:53.613Z,17.00
2018-10-11T23:12:22.527Z,16.33
2018-10-11T23:14:51.668Z,16.83
2018-10-11T23:17:20.522Z,16.00
2018-10-11T23:19:51.497Z,18.00
2018-10-11T23:22:20.394Z,17.70
2018-10-11T23:24:55.919Z,17.17
2018-10-11T23:27:24.897Z,17.40
2018-10-11T23:29:54.979Z,16.53
2018-10-11T23:32:23.860Z,16.73
2018-10-11T23:34:52.988Z,17.10
2018-10-11T23:37:21.902Z,17.00
2018-10-11T23:39:55.064Z,17.63
2018-10-11T23:42:24.299Z,15.07
2018-10-11T23:44:57.020Z,16.97
2018-10-11T23:47:25.884Z,17.43
2018-10-11T23:49:55.878Z,17.30
2018-10-11T23:52:24.843Z,16.33
2018-10-11T23:54:53.812Z,16.73
2018-10-11T23:57:22.713Z,16.47
2018-10-11T23:59:51.750Z,16.87
